sensor_id;sensor_type;location;lat;lon;timestamp;temperature;humidity
11617;DHT22;5864;52.998;9.068;2023-04-25T00:00:30;8.00;99.90
11617;DHT22;5864;52.998;9.068;2023-04-25T00:03:16;8.60;99.90
11617;DHT22;5864;52.998;9.068;2023-04-25T00:06:02;8.60;99.90
11617;DHT22;5864;52.998;9.068;2023-04-25T00:08:49;8.60;99.90
11617;DHT22;5864;52.998;9.068;2023-04-25T00:11:35;8.40;99.90
11617;DHT22;5864;52.998;9.068;2023-04-25T00:14:22;8.30;99.90
11617;DHT22;5864;52.998;9.068;2023-04-25T00:17:07;8.40;99.90
11617;DHT22;5864;52.998;9.068;2023-04-25T00:19:53;8.10;99.90
11617;DHT22;5864;52.998;9.068;2023-04-25T00:22:38;8.10;99.90
11617;DHT22;5864;52.998;9.068;2023-04-25T00:25:25;9.10;99.90
11617;DHT22;5864;52.998;9.068;2023-04-25T00:28:11;7.90;99.90
11617;DHT22;5864;52.998;9.068;2023-04-25T00:30:57;9.00;99.90
11617;DHT22;5864;52.998;9.068;2023-04-25T00:33:43;7.90;99.90
11617;DHT22;5864;52.998;9.068;2023-04-25T00:36:28;7.90;99.90
11617;DHT22;5864;52.998;9.068;2023-04-25T00:39:14;7.80;99.90
11617;DHT22;5864;52.998;9.068;2023-04-25T00:42:02;9.10;99.90
11617;DHT22;5864;52.998;9.068;2023-04-25T00:44:49;7.80;99.90
11617;DHT22;5864;52.998;9.068;2023-04-25T00:47:36;7.80;99.90
11617;DHT22;5864;52.998;9.068;2023-04-25T00:50:22;8.40;99.90
11617;DHT22;5864;52.998;9.068;2023-04-25T00:53:07;10.70;99.90
11617;DHT22;5864;52.998;9.068;2023-04-25T00:55:54;7.70;99.90
11617;DHT22;5864;52.998;9.068;2023-04-25T00:58:42;7.60;99.90
11617;DHT22;5864;52.998;9.068;2023-04-25T01:01:27;9.50;99.90
11617;DHT22;5864;52.998;9.068;2023-04-25T01:04:14;7.70;99.90
11617;DHT22;5864;52.998;9.068;2023-04-25T01:06:59;9.90;99.90
11617;DHT22;5864;52.998;9.068;2023-04-25T01:09:48;8.00;99.90
11617;DHT22;5864;52.998;9.068;2023-04-25T01:12:33;8.00;99.90
11617;DHT22;5864;52.998;9.068;2023-04-25T01:15:21;7.40;99.90
11617;DHT22;5864;52.998;9.068;2023-04-25T01:18:06;7.50;99.90
11617;DHT22;5864;52.998;9.068;2023-04-25T01:20:53;9.40;99.90
11617;DHT22;5864;52.998;9.068;2023-04-25T01:23:40;7.50;99.90
11617;DHT22;5864;52.998;9.068;2023-04-25T01:26:26;7.50;99.90
11617;DHT22;5864;52.998;9.068;2023-04-25T01:29:12;9.50;99.90
11617;DHT22;5864;52.998;9.068;2023-04-25T01:31:58;7.50;99.90
11617;DHT22;5864;52.998;9.068;2023-04-25T01:34:44;7.50;99.90
11617;DHT22;5864;52.998;9.068;2023-04-25T01:37:29;7.60;99.90
11617;DHT22;5864;52.998;9.068;2023-04-25T01:40:17;10.70;99.90
11617;DHT22;5864;52.998;9.068;2023-04-25T01:43:03;7.50;99.90
11617;DHT22;5864;52.998;9.068;2023-04-25T01:45:50;9.80;99.90
11617;DHT22;5864;52.998;9.068;2023-04-25T01:48:35;7.50;99.90
11617;DHT22;5864;52.998;9.068;2023-04-25T01:51:21;7.50;99.90
11617;DHT22;5864;52.998;9.068;2023-04-25T01:54:08;8.30;99.90
11617;DHT22;5864;52.998;9.068;2023-04-25T01:56:57;7.30;99.90
11617;DHT22;5864;52.998;9.068;2023-04-25T01:59:44;7.30;99.90
11617;DHT22;5864;52.998;9.068;2023-04-25T02:02:29;7.30;99.90
11617;DHT22;5864;52.998;9.068;2023-04-25T02:05:15;7.30;99.90
11617;DHT22;5864;52.998;9.068;2023-04-25T02:08:01;7.30;99.90
11617;DHT22;5864;52.998;9.068;2023-04-25T02:10:47;7.30;99.90
11617;DHT22;5864;52.998;9.068;2023-04-25T02:13:34;7.40;99.90
11617;DHT22;5864;52.998;9.068;2023-04-25T02:16:21;7.30;99.90
11617;DHT22;5864;52.998;9.068;2023-04-25T02:19:07;7.90;99.90
11617;DHT22;5864;52.998;9.068;2023-04-25T02:21:52;7.20;99.90
11617;DHT22;5864;52.998;9.068;2023-04-25T02:24:38;8.70;99.90
11617;DHT22;5864;52.998;9.068;2023-04-25T02:27:23;7.30;99.90
11617;DHT22;5864;52.998;9.068;2023-04-25T02:30:11;7.40;99.90
11617;DHT22;5864;52.998;9.068;2023-04-25T02:32:56;7.40;99.90
11617;DHT22;5864;52.998;9.068;2023-04-25T02:35:42;7.50;99.90
11617;DHT22;5864;52.998;9.068;2023-04-25T02:38:27;7.50;99.90
11617;DHT22;5864;52.998;9.068;2023-04-25T02:41:13;7.40;99.90
11617;DHT22;5864;52.998;9.068;2023-04-25T02:43:59;7.40;99.90
11617;DHT22;5864;52.998;9.068;2023-04-25T02:46:47;7.40;99.90
11617;DHT22;5864;52.998;9.068;2023-04-25T02:49:32;7.40;99.90
11617;DHT22;5864;52.998;9.068;2023-04-25T02:52:18;9.20;99.90
11617;DHT22;5864;52.998;9.068;2023-04-25T02:55:04;7.30;99.90
11617;DHT22;5864;52.998;9.068;2023-04-25T02:57:49;7.10;99.90
11617;DHT22;5864;52.998;9.068;2023-04-25T03:00:35;8.40;99.90
11617;DHT22;5864;52.998;9.068;2023-04-25T03:03:22;7.90;99.90
11617;DHT22;5864;52.998;9.068;2023-04-25T03:06:07;7.00;99.90
11617;DHT22;5864;52.998;9.068;2023-04-25T03:08:53;7.90;99.90
11617;DHT22;5864;52.998;9.068;2023-04-25T03:11:39;9.10;99.90
11617;DHT22;5864;52.998;9.068;2023-04-25T03:14:25;6.90;99.90
11617;DHT22;5864;52.998;9.068;2023-04-25T03:17:11;6.80;99.90
11617;DHT22;5864;52.998;9.068;2023-04-25T03:19:59;8.30;99.90
11617;DHT22;5864;52.998;9.068;2023-04-25T03:22:44;7.60;99.90
11617;DHT22;5864;52.998;9.068;2023-04-25T03:25:30;7.00;99.90
11617;DHT22;5864;52.998;9.068;2023-04-25T03:28:16;7.00;99.90
11617;DHT22;5864;52.998;9.068;2023-04-25T03:31:01;7.10;99.90
11617;DHT22;5864;52.998;9.068;2023-04-25T03:33:47;7.10;99.90
11617;DHT22;5864;52.998;9.068;2023-04-25T03:36:34;8.00;99.90
11617;DHT22;5864;52.998;9.068;2023-04-25T03:39:19;7.20;99.90
11617;DHT22;5864;52.998;9.068;2023-04-25T03:42:05;7.20;99.90
11617;DHT22;5864;52.998;9.068;2023-04-25T03:44:51;7.30;99.90
11617;DHT22;5864;52.998;9.068;2023-04-25T03:47:37;7.20;99.90
11617;DHT22;5864;52.998;9.068;2023-04-25T03:50:23;8.20;99.90
11617;DHT22;5864;52.998;9.068;2023-04-25T03:53:10;7.10;99.90
11617;DHT22;5864;52.998;9.068;2023-04-25T03:55:55;8.70;99.90
11617;DHT22;5864;52.998;9.068;2023-04-25T03:58:41;7.10;99.90
11617;DHT22;5864;52.998;9.068;2023-04-25T04:01:27;7.10;99.90
11617;DHT22;5864;52.998;9.068;2023-04-25T04:04:13;7.20;99.90
11617;DHT22;5864;52.998;9.068;2023-04-25T04:06:58;7.20;99.90
11617;DHT22;5864;52.998;9.068;2023-04-25T04:09:45;7.20;99.90
11617;DHT22;5864;52.998;9.068;2023-04-25T04:12:31;7.20;99.90
11617;DHT22;5864;52.998;9.068;2023-04-25T04:15:16;10.00;99.90
11617;DHT22;5864;52.998;9.068;2023-04-25T04:18:02;7.90;99.90
11617;DHT22;5864;52.998;9.068;2023-04-25T04:20:48;9.50;99.90
11617;DHT22;5864;52.998;9.068;2023-04-25T04:23:34;7.20;99.90
11617;DHT22;5864;52.998;9.068;2023-04-25T04:26:21;9.10;99.90
11617;DHT22;5864;52.998;9.068;2023-04-25T04:29:08;9.10;99.90
11617;DHT22;5864;52.998;9.068;2023-04-25T04:31:54;7.50;99.90
11617;DHT22;5864;52.998;9.068;2023-04-25T04:34:40;7.10;99.90
11617;DHT22;5864;52.998;9.068;2023-04-25T04:37:26;7.20;99.90
11617;DHT22;5864;52.998;9.068;2023-04-25T04:40:12;7.10;99.90
11617;DHT22;5864;52.998;9.068;2023-04-25T04:43:01;7.10;99.90
11617;DHT22;5864;52.998;9.068;2023-04-25T04:45:46;7.80;99.90
11617;DHT22;5864;52.998;9.068;2023-04-25T04:48:34;8.10;99.90
11617;DHT22;5864;52.998;9.068;2023-04-25T04:51:19;6.90;99.90
11617;DHT22;5864;52.998;9.068;2023-04-25T04:54:05;6.90;99.90
11617;DHT22;5864;52.998;9.068;2023-04-25T04:56:51;10.20;99.90
11617;DHT22;5864;52.998;9.068;2023-04-25T04:59:38;6.90;99.90
11617;DHT22;5864;52.998;9.068;2023-04-25T05:02:23;7.00;99.90
11617;DHT22;5864;52.998;9.068;2023-04-25T05:05:09;8.40;99.90
11617;DHT22;5864;52.998;9.068;2023-04-25T05:07:55;7.10;99.90
11617;DHT22;5864;52.998;9.068;2023-04-25T05:10:40;7.60;99.90
11617;DHT22;5864;52.998;9.068;2023-04-25T05:13:26;8.10;99.90
11617;DHT22;5864;52.998;9.068;2023-04-25T05:16:13;8.10;99.90
11617;DHT22;5864;52.998;9.068;2023-04-25T05:18:59;7.40;99.90
11617;DHT22;5864;52.998;9.068;2023-04-25T05:21:45;8.80;99.90
11617;DHT22;5864;52.998;9.068;2023-04-25T05:24:30;7.20;99.90
11617;DHT22;5864;52.998;9.068;2023-04-25T05:27:16;8.90;99.90
11617;DHT22;5864;52.998;9.068;2023-04-25T05:30:02;9.70;99.90
11617;DHT22;5864;52.998;9.068;2023-04-25T05:32:51;7.30;99.90
11617;DHT22;5864;52.998;9.068;2023-04-25T05:35:36;7.30;99.90
11617;DHT22;5864;52.998;9.068;2023-04-25T05:38:22;9.80;99.90
11617;DHT22;5864;52.998;9.068;2023-04-25T05:41:07;7.40;99.90
11617;DHT22;5864;52.998;9.068;2023-04-25T05:43:52;7.40;99.90
11617;DHT22;5864;52.998;9.068;2023-04-25T05:46:38;7.40;99.90
11617;DHT22;5864;52.998;9.068;2023-04-25T05:49:25;7.50;99.90
11617;DHT22;5864;52.998;9.068;2023-04-25T05:52:11;7.50;99.90
11617;DHT22;5864;52.998;9.068;2023-04-25T05:54:56;8.40;99.90
11617;DHT22;5864;52.998;9.068;2023-04-25T05:57:42;7.70;99.90
11617;DHT22;5864;52.998;9.068;2023-04-25T06:00:29;8.50;99.90
11617;DHT22;5864;52.998;9.068;2023-04-25T06:03:15;9.10;99.90
11617;DHT22;5864;52.998;9.068;2023-04-25T06:06:02;7.90;99.90
11617;DHT22;5864;52.998;9.068;2023-04-25T06:08:48;8.10;99.90
11617;DHT22;5864;52.998;9.068;2023-04-25T06:11:34;8.30;99.90
11617;DHT22;5864;52.998;9.068;2023-04-25T06:14:20;8.60;99.90
11617;DHT22;5864;52.998;9.068;2023-04-25T06:17:06;8.70;99.90
11617;DHT22;5864;52.998;9.068;2023-04-25T06:19:52;8.80;99.90
11617;DHT22;5864;52.998;9.068;2023-04-25T06:22:39;9.00;99.90
11617;DHT22;5864;52.998;9.068;2023-04-25T06:25:25;9.00;99.90
11617;DHT22;5864;52.998;9.068;2023-04-25T06:28:11;9.30;99.90
11617;DHT22;5864;52.998;9.068;2023-04-25T06:30:56;9.60;99.90
11617;DHT22;5864;52.998;9.068;2023-04-25T06:33:42;9.60;96.50
11617;DHT22;5864;52.998;9.068;2023-04-25T06:36:27;10.00;99.00
11617;DHT22;5864;52.998;9.068;2023-04-25T06:39:14;10.40;90.80
11617;DHT22;5864;52.998;9.068;2023-04-25T06:42:00;10.50;86.50
11617;DHT22;5864;52.998;9.068;2023-04-25T06:44:46;10.90;90.50
11617;DHT22;5864;52.998;9.068;2023-04-25T06:47:32;11.60;77.80
11617;DHT22;5864;52.998;9.068;2023-04-25T06:50:18;11.70;58.00
11617;DHT22;5864;52.998;9.068;2023-04-25T06:53:04;11.90;55.70
11617;DHT22;5864;52.998;9.068;2023-04-25T06:55:51;11.90;51.40
11617;DHT22;5864;52.998;9.068;2023-04-25T06:58:37;11.70;46.20
11617;DHT22;5864;52.998;9.068;2023-04-25T07:01:23;12.20;44.20
11617;DHT22;5864;52.998;9.068;2023-04-25T07:04:08;12.00;50.60
11617;DHT22;5864;52.998;9.068;2023-04-25T07:06:54;11.80;38.10
11617;DHT22;5864;52.998;9.068;2023-04-25T07:09:39;11.50;47.20
11617;DHT22;5864;52.998;9.068;2023-04-25T07:12:26;11.10;49.60
11617;DHT22;5864;52.998;9.068;2023-04-25T07:15:12;11.00;55.10
11617;DHT22;5864;52.998;9.068;2023-04-25T07:17:58;10.90;49.40
11617;DHT22;5864;52.998;9.068;2023-04-25T07:20:44;10.60;57.70
11617;DHT22;5864;52.998;9.068;2023-04-25T07:23:29;10.40;55.30
11617;DHT22;5864;52.998;9.068;2023-04-25T07:26:15;11.10;52.50
11617;DHT22;5864;52.998;9.068;2023-04-25T07:29:02;9.90;64.70
11617;DHT22;5864;52.998;9.068;2023-04-25T07:31:48;9.80;60.40
11617;DHT22;5864;52.998;9.068;2023-04-25T07:34:34;9.50;60.00
11617;DHT22;5864;52.998;9.068;2023-04-25T07:37:21;9.20;74.10
11617;DHT22;5864;52.998;9.068;2023-04-25T07:40:08;9.20;81.20
11617;DHT22;5864;52.998;9.068;2023-04-25T07:42:54;8.90;74.40
11617;DHT22;5864;52.998;9.068;2023-04-25T07:45:41;8.70;78.40
11617;DHT22;5864;52.998;9.068;2023-04-25T07:48:27;9.40;85.20
11617;DHT22;5864;52.998;9.068;2023-04-25T07:51:13;8.70;80.30
11617;DHT22;5864;52.998;9.068;2023-04-25T07:53:59;11.60;79.70
11617;DHT22;5864;52.998;9.068;2023-04-25T07:56:45;9.10;67.20
11617;DHT22;5864;52.998;9.068;2023-04-25T07:59:31;9.10;70.40
11617;DHT22;5864;52.998;9.068;2023-04-25T08:02:18;9.70;82.40
11617;DHT22;5864;52.998;9.068;2023-04-25T08:05:05;10.70;43.80
11617;DHT22;5864;52.998;9.068;2023-04-25T08:07:52;11.50;36.10
11617;DHT22;5864;52.998;9.068;2023-04-25T08:10:38;12.20;30.00
11617;DHT22;5864;52.998;9.068;2023-04-25T08:13:23;11.70;30.20
11617;DHT22;5864;52.998;9.068;2023-04-25T08:16:09;11.60;30.70
11617;DHT22;5864;52.998;9.068;2023-04-25T08:18:57;12.20;37.10
11617;DHT22;5864;52.998;9.068;2023-04-25T08:21:42;12.60;26.60
11617;DHT22;5864;52.998;9.068;2023-04-25T08:24:28;12.70;19.40
11617;DHT22;5864;52.998;9.068;2023-04-25T08:27:14;12.40;21.90
11617;DHT22;5864;52.998;9.068;2023-04-25T08:30:00;12.20;22.80
11617;DHT22;5864;52.998;9.068;2023-04-25T08:32:47;12.00;21.00
11617;DHT22;5864;52.998;9.068;2023-04-25T08:35:34;11.50;21.90
11617;DHT22;5864;52.998;9.068;2023-04-25T08:38:19;10.60;26.80
11617;DHT22;5864;52.998;9.068;2023-04-25T08:41:06;11.10;31.00
11617;DHT22;5864;52.998;9.068;2023-04-25T08:43:53;10.00;36.20
11617;DHT22;5864;52.998;9.068;2023-04-25T08:46:41;9.90;35.40
11617;DHT22;5864;52.998;9.068;2023-04-25T08:49:28;9.60;42.40
11617;DHT22;5864;52.998;9.068;2023-04-25T08:52:21;9.50;72.80
11617;DHT22;5864;52.998;9.068;2023-04-25T08:55:08;8.90;97.70
11617;DHT22;5864;52.998;9.068;2023-04-25T08:57:55;8.60;99.90
11617;DHT22;5864;52.998;9.068;2023-04-25T09:00:41;9.60;99.90
11617;DHT22;5864;52.998;9.068;2023-04-25T09:03:27;9.30;99.90
11617;DHT22;5864;52.998;9.068;2023-04-25T09:06:13;8.60;99.90
11617;DHT22;5864;52.998;9.068;2023-04-25T09:09:04;8.60;99.90
11617;DHT22;5864;52.998;9.068;2023-04-25T09:11:50;8.80;99.90
11617;DHT22;5864;52.998;9.068;2023-04-25T09:14:35;9.00;99.30
11617;DHT22;5864;52.998;9.068;2023-04-25T09:17:21;8.90;90.20
11617;DHT22;5864;52.998;9.068;2023-04-25T09:20:09;9.20;92.00
11617;DHT22;5864;52.998;9.068;2023-04-25T09:23:01;9.50;90.20
11617;DHT22;5864;52.998;9.068;2023-04-25T09:25:49;9.90;65.60
11617;DHT22;5864;52.998;9.068;2023-04-25T09:28:36;11.90;53.60
11617;DHT22;5864;52.998;9.068;2023-04-25T09:31:23;10.90;52.20
11617;DHT22;5864;52.998;9.068;2023-04-25T09:34:09;12.00;48.00
11617;DHT22;5864;52.998;9.068;2023-04-25T09:37:01;12.50;27.60
11617;DHT22;5864;52.998;9.068;2023-04-25T09:39:47;13.10;29.70
11617;DHT22;5864;52.998;9.068;2023-04-25T09:42:34;13.40;19.60
11617;DHT22;5864;52.998;9.068;2023-04-25T09:45:20;13.50;17.70
11617;DHT22;5864;52.998;9.068;2023-04-25T09:48:06;13.60;21.20
11617;DHT22;5864;52.998;9.068;2023-04-25T09:51:04;11.20;15.00
11617;DHT22;5864;52.998;9.068;2023-04-25T09:53:49;12.90;22.30
11617;DHT22;5864;52.998;9.068;2023-04-25T09:56:36;12.70;19.20
11617;DHT22;5864;52.998;9.068;2023-04-25T09:59:23;12.40;19.70
11617;DHT22;5864;52.998;9.068;2023-04-25T10:02:11;11.20;25.00
11617;DHT22;5864;52.998;9.068;2023-04-25T10:04:56;10.40;31.30
11617;DHT22;5864;52.998;9.068;2023-04-25T10:07:42;9.60;65.60
11617;DHT22;5864;52.998;9.068;2023-04-25T10:10:28;9.60;93.10
11617;DHT22;5864;52.998;9.068;2023-04-25T10:13:17;10.20;85.40
11617;DHT22;5864;52.998;9.068;2023-04-25T10:16:05;10.50;82.50
11617;DHT22;5864;52.998;9.068;2023-04-25T10:18:52;10.90;83.20
11617;DHT22;5864;52.998;9.068;2023-04-25T10:21:43;11.30;77.60
11617;DHT22;5864;52.998;9.068;2023-04-25T10:24:30;12.30;65.80
11617;DHT22;5864;52.998;9.068;2023-04-25T10:27:15;13.30;55.20
11617;DHT22;5864;52.998;9.068;2023-04-25T10:30:03;13.90;41.00
11617;DHT22;5864;52.998;9.068;2023-04-25T10:32:51;14.90;35.60
11617;DHT22;5864;52.998;9.068;2023-04-25T10:35:39;15.00;21.00
11617;DHT22;5864;52.998;9.068;2023-04-25T10:38:25;15.20;16.00
11617;DHT22;5864;52.998;9.068;2023-04-25T10:41:12;15.50;15.50
11617;DHT22;5864;52.998;9.068;2023-04-25T10:43:59;15.00;1.60
11617;DHT22;5864;52.998;9.068;2023-04-25T10:46:47;14.20;1.00
11617;DHT22;5864;52.998;9.068;2023-04-25T10:49:35;13.60;1.00
11617;DHT22;5864;52.998;9.068;2023-04-25T10:52:25;13.70;4.20
11617;DHT22;5864;52.998;9.068;2023-04-25T10:55:12;13.40;3.80
11617;DHT22;5864;52.998;9.068;2023-04-25T10:57:58;12.80;7.60
11617;DHT22;5864;52.998;9.068;2023-04-25T11:00:45;12.60;14.50
11617;DHT22;5864;52.998;9.068;2023-04-25T11:03:31;12.60;16.50
11617;DHT22;5864;52.998;9.068;2023-04-25T11:06:22;12.90;17.70
11617;DHT22;5864;52.998;9.068;2023-04-25T11:09:10;13.10;17.90
11617;DHT22;5864;52.998;9.068;2023-04-25T11:11:58;13.20;20.70
11617;DHT22;5864;52.998;9.068;2023-04-25T11:14:44;13.70;25.60
11617;DHT22;5864;52.998;9.068;2023-04-25T11:17:30;14.10;18.70
11617;DHT22;5864;52.998;9.068;2023-04-25T11:20:15;14.70;18.80
11617;DHT22;5864;52.998;9.068;2023-04-25T11:23:02;15.30;21.20
11617;DHT22;5864;52.998;9.068;2023-04-25T11:25:52;15.70;20.00
11617;DHT22;5864;52.998;9.068;2023-04-25T11:28:37;15.80;14.60
11617;DHT22;5864;52.998;9.068;2023-04-25T11:31:24;15.70;19.30
11617;DHT22;5864;52.998;9.068;2023-04-25T11:34:10;16.00;17.30
11617;DHT22;5864;52.998;9.068;2023-04-25T11:36:56;16.40;16.70
11617;DHT22;5864;52.998;9.068;2023-04-25T11:39:46;16.20;15.50
11617;DHT22;5864;52.998;9.068;2023-04-25T11:42:32;16.10;10.20
11617;DHT22;5864;52.998;9.068;2023-04-25T11:45:18;15.40;8.00
11617;DHT22;5864;52.998;9.068;2023-04-25T11:48:04;14.60;11.10
11617;DHT22;5864;52.998;9.068;2023-04-25T11:50:50;13.30;16.70
11617;DHT22;5864;52.998;9.068;2023-04-25T11:53:41;12.00;17.60
11617;DHT22;5864;52.998;9.068;2023-04-25T11:56:28;10.80;30.70
11617;DHT22;5864;52.998;9.068;2023-04-25T11:59:15;10.50;51.10
11617;DHT22;5864;52.998;9.068;2023-04-25T12:02:01;11.00;91.00
11617;DHT22;5864;52.998;9.068;2023-04-25T12:04:47;9.50;99.90
11617;DHT22;5864;52.998;9.068;2023-04-25T12:07:33;9.10;99.90
11617;DHT22;5864;52.998;9.068;2023-04-25T12:10:20;8.60;99.90
11617;DHT22;5864;52.998;9.068;2023-04-25T12:13:20;9.90;99.90
11617;DHT22;5864;52.998;9.068;2023-04-25T12:16:06;9.00;99.90
11617;DHT22;5864;52.998;9.068;2023-04-25T12:18:51;9.50;99.90
11617;DHT22;5864;52.998;9.068;2023-04-25T12:21:37;9.80;99.50
11617;DHT22;5864;52.998;9.068;2023-04-25T12:24:24;10.10;99.90
11617;DHT22;5864;52.998;9.068;2023-04-25T12:27:14;11.30;99.50
11617;DHT22;5864;52.998;9.068;2023-04-25T12:30:05;10.90;92.50
11617;DHT22;5864;52.998;9.068;2023-04-25T12:32:51;11.00;81.60
11617;DHT22;5864;52.998;9.068;2023-04-25T12:35:37;10.70;76.70
11617;DHT22;5864;52.998;9.068;2023-04-25T12:38:28;11.50;93.40
11617;DHT22;5864;52.998;9.068;2023-04-25T12:41:14;11.30;41.00
11617;DHT22;5864;52.998;9.068;2023-04-25T12:44:00;11.10;50.50
11617;DHT22;5864;52.998;9.068;2023-04-25T12:46:47;12.50;45.10
11617;DHT22;5864;52.998;9.068;2023-04-25T12:49:33;12.30;37.60
11617;DHT22;5864;52.998;9.068;2023-04-25T12:52:18;12.60;31.80
11617;DHT22;5864;52.998;9.068;2023-04-25T12:55:05;12.10;21.10
11617;DHT22;5864;52.998;9.068;2023-04-25T12:57:51;11.50;23.80
11617;DHT22;5864;52.998;9.068;2023-04-25T13:00:37;11.40;27.10
11617;DHT22;5864;52.998;9.068;2023-04-25T13:03:25;11.70;27.50
11617;DHT22;5864;52.998;9.068;2023-04-25T13:06:10;11.90;22.60
11617;DHT22;5864;52.998;9.068;2023-04-25T13:08:56;12.00;25.20
11617;DHT22;5864;52.998;9.068;2023-04-25T13:11:42;12.00;23.10
11617;DHT22;5864;52.998;9.068;2023-04-25T13:14:27;12.30;22.30
11617;DHT22;5864;52.998;9.068;2023-04-25T13:17:13;12.80;23.20
11617;DHT22;5864;52.998;9.068;2023-04-25T13:20:00;13.30;20.80
11617;DHT22;5864;52.998;9.068;2023-04-25T13:22:46;14.00;19.40
11617;DHT22;5864;52.998;9.068;2023-04-25T13:25:31;13.40;16.20
11617;DHT22;5864;52.998;9.068;2023-04-25T13:28:17;12.90;18.50
11617;DHT22;5864;52.998;9.068;2023-04-25T13:31:02;13.10;18.00
11617;DHT22;5864;52.998;9.068;2023-04-25T13:33:48;11.40;24.30
11617;DHT22;5864;52.998;9.068;2023-04-25T13:36:35;11.60;35.00
11617;DHT22;5864;52.998;9.068;2023-04-25T13:39:21;10.00;68.20
11617;DHT22;5864;52.998;9.068;2023-04-25T13:42:06;10.00;57.80
11617;DHT22;5864;52.998;9.068;2023-04-25T13:44:52;9.90;58.20
11617;DHT22;5864;52.998;9.068;2023-04-25T13:47:38;10.10;56.90
11617;DHT22;5864;52.998;9.068;2023-04-25T13:50:24;10.70;54.40
11617;DHT22;5864;52.998;9.068;2023-04-25T13:53:11;11.30;38.70
11617;DHT22;5864;52.998;9.068;2023-04-25T13:55:56;11.90;37.30
11617;DHT22;5864;52.998;9.068;2023-04-25T13:58:42;12.50;27.00
11617;DHT22;5864;52.998;9.068;2023-04-25T14:01:27;12.90;20.60
11617;DHT22;5864;52.998;9.068;2023-04-25T14:04:15;12.80;20.00
11617;DHT22;5864;52.998;9.068;2023-04-25T14:07:00;12.80;15.00
11617;DHT22;5864;52.998;9.068;2023-04-25T14:09:47;12.70;16.90
11617;DHT22;5864;52.998;9.068;2023-04-25T14:12:34;12.80;16.20
11617;DHT22;5864;52.998;9.068;2023-04-25T14:15:19;13.20;18.10
11617;DHT22;5864;52.998;9.068;2023-04-25T14:18:05;13.40;15.40
11617;DHT22;5864;52.998;9.068;2023-04-25T14:20:51;13.90;11.90
11617;DHT22;5864;52.998;9.068;2023-04-25T14:23:37;13.70;10.80
11617;DHT22;5864;52.998;9.068;2023-04-25T14:26:25;13.80;12.50
11617;DHT22;5864;52.998;9.068;2023-04-25T14:29:10;13.60;10.40
11617;DHT22;5864;52.998;9.068;2023-04-25T14:31:56;12.90;9.60
11617;DHT22;5864;52.998;9.068;2023-04-25T14:34:42;11.70;14.20
11617;DHT22;5864;52.998;9.068;2023-04-25T14:37:28;11.60;16.60
11617;DHT22;5864;52.998;9.068;2023-04-25T14:40:14;11.90;17.40
11617;DHT22;5864;52.998;9.068;2023-04-25T14:43:02;12.10;16.50
11617;DHT22;5864;52.998;9.068;2023-04-25T14:45:47;12.40;19.80
11617;DHT22;5864;52.998;9.068;2023-04-25T14:48:33;12.60;15.50
11617;DHT22;5864;52.998;9.068;2023-04-25T14:51:19;12.80;12.50
11617;DHT22;5864;52.998;9.068;2023-04-25T14:54:05;12.10;7.90
11617;DHT22;5864;52.998;9.068;2023-04-25T14:56:51;11.50;12.60
11617;DHT22;5864;52.998;9.068;2023-04-25T14:59:38;10.90;23.20
11617;DHT22;5864;52.998;9.068;2023-04-25T15:02:24;11.00;37.40
11617;DHT22;5864;52.998;9.068;2023-04-25T15:05:10;10.20;38.60
11617;DHT22;5864;52.998;9.068;2023-04-25T15:07:55;10.00;41.00
11617;DHT22;5864;52.998;9.068;2023-04-25T15:10:41;9.60;45.60
11617;DHT22;5864;52.998;9.068;2023-04-25T15:13:26;9.50;56.70
11617;DHT22;5864;52.998;9.068;2023-04-25T15:16:13;9.50;74.00
11617;DHT22;5864;52.998;9.068;2023-04-25T15:18:59;9.70;57.00
11617;DHT22;5864;52.998;9.068;2023-04-25T15:21:47;9.80;60.00
11617;DHT22;5864;52.998;9.068;2023-04-25T15:24:34;10.10;52.30
11617;DHT22;5864;52.998;9.068;2023-04-25T15:27:19;10.20;37.70
11617;DHT22;5864;52.998;9.068;2023-04-25T15:30:06;10.40;33.00
11617;DHT22;5864;52.998;9.068;2023-04-25T15:32:53;10.50;29.10
11617;DHT22;5864;52.998;9.068;2023-04-25T15:35:39;10.50;28.80
11617;DHT22;5864;52.998;9.068;2023-04-25T15:38:24;10.50;30.80
11617;DHT22;5864;52.998;9.068;2023-04-25T15:41:12;10.30;31.50
11617;DHT22;5864;52.998;9.068;2023-04-25T15:43:59;10.50;29.60
11617;DHT22;5864;52.998;9.068;2023-04-25T15:46:45;10.10;34.20
11617;DHT22;5864;52.998;9.068;2023-04-25T15:49:32;10.00;36.90
11617;DHT22;5864;52.998;9.068;2023-04-25T15:52:18;9.90;41.20
11617;DHT22;5864;52.998;9.068;2023-04-25T15:55:05;10.30;70.30
11617;DHT22;5864;52.998;9.068;2023-04-25T15:57:51;9.90;89.80
11617;DHT22;5864;52.998;9.068;2023-04-25T16:00:37;9.70;80.40
11617;DHT22;5864;52.998;9.068;2023-04-25T16:03:23;11.50;86.60
11617;DHT22;5864;52.998;9.068;2023-04-25T16:06:10;10.20;57.00
11617;DHT22;5864;52.998;9.068;2023-04-25T16:08:55;10.70;50.90
11617;DHT22;5864;52.998;9.068;2023-04-25T16:11:41;10.10;46.70
11617;DHT22;5864;52.998;9.068;2023-04-25T16:14:27;9.90;53.40
11617;DHT22;5864;52.998;9.068;2023-04-25T16:17:13;10.70;55.50
11617;DHT22;5864;52.998;9.068;2023-04-25T16:19:59;9.90;47.60
11617;DHT22;5864;52.998;9.068;2023-04-25T16:22:47;9.90;52.90
11617;DHT22;5864;52.998;9.068;2023-04-25T16:25:32;11.40;43.70
11617;DHT22;5864;52.998;9.068;2023-04-25T16:28:17;9.80;48.80
11617;DHT22;5864;52.998;9.068;2023-04-25T16:31:03;9.80;50.70
11617;DHT22;5864;52.998;9.068;2023-04-25T16:33:49;9.90;52.10
11617;DHT22;5864;52.998;9.068;2023-04-25T16:36:35;10.00;52.10
11617;DHT22;5864;52.998;9.068;2023-04-25T16:39:22;10.10;43.70
11617;DHT22;5864;52.998;9.068;2023-04-25T16:42:08;10.00;46.80
11617;DHT22;5864;52.998;9.068;2023-04-25T16:44:53;10.00;44.50
11617;DHT22;5864;52.998;9.068;2023-04-25T16:47:39;9.70;34.60
11617;DHT22;5864;52.998;9.068;2023-04-25T16:50:25;9.60;37.30
11617;DHT22;5864;52.998;9.068;2023-04-25T16:53:11;9.60;39.20
11617;DHT22;5864;52.998;9.068;2023-04-25T16:55:57;9.50;39.50
11617;DHT22;5864;52.998;9.068;2023-04-25T16:58:43;9.80;39.80
11617;DHT22;5864;52.998;9.068;2023-04-25T17:01:29;9.50;41.10
11617;DHT22;5864;52.998;9.068;2023-04-25T17:04:15;9.30;46.30
11617;DHT22;5864;52.998;9.068;2023-04-25T17:07:01;9.30;50.20
11617;DHT22;5864;52.998;9.068;2023-04-25T17:09:46;9.40;51.30
11617;DHT22;5864;52.998;9.068;2023-04-25T17:12:33;9.80;53.90
11617;DHT22;5864;52.998;9.068;2023-04-25T17:15:19;9.90;47.90
11617;DHT22;5864;52.998;9.068;2023-04-25T17:18:04;10.60;31.50
11617;DHT22;5864;52.998;9.068;2023-04-25T17:20:50;9.70;32.70
11617;DHT22;5864;52.998;9.068;2023-04-25T17:23:36;10.40;30.20
11617;DHT22;5864;52.998;9.068;2023-04-25T17:26:27;9.50;32.30
11617;DHT22;5864;52.998;9.068;2023-04-25T17:29:14;9.40;34.50
11617;DHT22;5864;52.998;9.068;2023-04-25T17:32:00;9.20;38.40
11617;DHT22;5864;52.998;9.068;2023-04-25T17:34:45;8.70;79.40
11617;DHT22;5864;52.998;9.068;2023-04-25T17:37:31;8.70;92.10
11617;DHT22;5864;52.998;9.068;2023-04-25T17:40:17;11.10;96.00
11617;DHT22;5864;52.998;9.068;2023-04-25T17:43:03;8.40;97.20
11617;DHT22;5864;52.998;9.068;2023-04-25T17:45:50;8.20;92.80
11617;DHT22;5864;52.998;9.068;2023-04-25T17:48:36;10.00;91.90
11617;DHT22;5864;52.998;9.068;2023-04-25T17:51:22;8.30;92.70
11617;DHT22;5864;52.998;9.068;2023-04-25T17:54:07;8.10;92.30
11617;DHT22;5864;52.998;9.068;2023-04-25T17:56:53;10.40;93.80